sensor_id;sensor_type;location;lat;lon;timestamp;P1;durP1;ratioP1;P2;durP2;ratioP2
34952;SDS011;21164;54.378;10.202;2022-08-19T00:01:52;30.83;;;19.85;;
34952;SDS011;21164;54.378;10.202;2022-08-19T00:04:23;25.60;;;18.23;;
34952;SDS011;21164;54.378;10.202;2022-08-19T00:06:51;33.63;;;19.73;;
34952;SDS011;21164;54.378;10.202;2022-08-19T00:09:18;29.05;;;19.42;;
34952;SDS011;21164;54.378;10.202;2022-08-19T00:11:45;31.48;;;19.83;;
34952;SDS011;21164;54.378;10.202;2022-08-19T00:14:12;30.90;;;18.55;;
34952;SDS011;21164;54.378;10.202;2022-08-19T00:16:40;33.35;;;19.45;;
34952;SDS011;21164;54.378;10.202;2022-08-19T00:19:08;28.20;;;19.60;;
34952;SDS011;21164;54.378;10.202;2022-08-19T00:21:34;32.25;;;20.17;;
34952;SDS011;21164;54.378;10.202;2022-08-19T00:24:04;27.20;;;20.35;;
34952;SDS011;21164;54.378;10.202;2022-08-19T00:26:30;31.33;;;18.67;;
34952;SDS011;21164;54.378;10.202;2022-08-19T00:28:56;28.25;;;20.33;;
34952;SDS011;21164;54.378;10.202;2022-08-19T00:31:22;31.08;;;19.60;;
34952;SDS011;21164;54.378;10.202;2022-08-19T00:33:47;27.75;;;19.95;;
34952;SDS011;21164;54.378;10.202;2022-08-19T00:36:15;28.85;;;19.95;;
34952;SDS011;21164;54.378;10.202;2022-08-19T00:38:41;28.77;;;19.25;;
34952;SDS011;21164;54.378;10.202;2022-08-19T00:43:34;27.23;;;19.45;;
34952;SDS011;21164;54.378;10.202;2022-08-19T00:46:03;30.58;;;19.10;;
34952;SDS011;21164;54.378;10.202;2022-08-19T00:48:29;33.00;;;22.17;;
34952;SDS011;21164;54.378;10.202;2022-08-19T00:50:57;34.63;;;21.20;;
34952;SDS011;21164;54.378;10.202;2022-08-19T00:55:51;31.98;;;20.58;;
34952;SDS011;21164;54.378;10.202;2022-08-19T00:58:20;32.03;;;21.00;;
34952;SDS011;21164;54.378;10.202;2022-08-19T01:00:49;32.22;;;21.10;;
34952;SDS011;21164;54.378;10.202;2022-08-19T01:03:16;34.30;;;21.38;;
34952;SDS011;21164;54.378;10.202;2022-08-19T01:05:43;31.58;;;20.63;;
34952;SDS011;21164;54.378;10.202;2022-08-19T01:08:10;35.67;;;21.38;;
34952;SDS011;21164;54.378;10.202;2022-08-19T01:10:48;30.50;;;20.83;;
34952;SDS011;21164;54.378;10.202;2022-08-19T01:13:19;33.22;;;21.77;;
34952;SDS011;21164;54.378;10.202;2022-08-19T01:15:52;33.63;;;23.02;;
34952;SDS011;21164;54.378;10.202;2022-08-19T01:18:29;33.53;;;21.20;;
34952;SDS011;21164;54.378;10.202;2022-08-19T01:20:58;33.17;;;20.63;;
34952;SDS011;21164;54.378;10.202;2022-08-19T01:23:27;38.42;;;22.30;;
34952;SDS011;21164;54.378;10.202;2022-08-19T01:26:09;30.58;;;21.98;;
34952;SDS011;21164;54.378;10.202;2022-08-19T01:28:47;36.20;;;21.45;;
34952;SDS011;21164;54.378;10.202;2022-08-19T01:31:17;31.58;;;20.77;;
34952;SDS011;21164;54.378;10.202;2022-08-19T01:33:49;36.25;;;21.55;;
34952;SDS011;21164;54.378;10.202;2022-08-19T01:36:22;32.88;;;20.38;;
34952;SDS011;21164;54.378;10.202;2022-08-19T01:38:50;35.50;;;22.08;;
34952;SDS011;21164;54.378;10.202;2022-08-19T01:41:17;39.42;;;23.35;;
34952;SDS011;21164;54.378;10.202;2022-08-19T01:43:43;33.10;;;22.27;;
34952;SDS011;21164;54.378;10.202;2022-08-19T01:46:10;35.22;;;21.85;;
34952;SDS011;21164;54.378;10.202;2022-08-19T01:48:38;35.03;;;21.67;;
34952;SDS011;21164;54.378;10.202;2022-08-19T01:51:05;31.60;;;22.15;;
34952;SDS011;21164;54.378;10.202;2022-08-19T01:53:31;38.05;;;23.58;;
34952;SDS011;21164;54.378;10.202;2022-08-19T01:58:25;33.67;;;21.27;;
34952;SDS011;21164;54.378;10.202;2022-08-19T02:00:57;33.42;;;20.73;;
34952;SDS011;21164;54.378;10.202;2022-08-19T02:05:53;32.50;;;20.90;;
34952;SDS011;21164;54.378;10.202;2022-08-19T02:08:19;31.92;;;20.70;;
34952;SDS011;21164;54.378;10.202;2022-08-19T02:10:45;36.85;;;23.23;;
34952;SDS011;21164;54.378;10.202;2022-08-19T02:13:11;33.03;;;22.15;;
34952;SDS011;21164;54.378;10.202;2022-08-19T02:15:38;35.28;;;22.27;;
34952;SDS011;21164;54.378;10.202;2022-08-19T02:18:03;40.72;;;23.42;;
34952;SDS011;21164;54.378;10.202;2022-08-19T02:20:30;36.63;;;22.60;;
34952;SDS011;21164;54.378;10.202;2022-08-19T02:22:56;38.17;;;22.20;;
34952;SDS011;21164;54.378;10.202;2022-08-19T02:25:21;41.25;;;23.65;;
34952;SDS011;21164;54.378;10.202;2022-08-19T02:27:47;37.70;;;23.85;;
34952;SDS011;21164;54.378;10.202;2022-08-19T02:30:13;39.45;;;23.58;;
34952;SDS011;21164;54.378;10.202;2022-08-19T02:32:41;39.72;;;23.33;;
34952;SDS011;21164;54.378;10.202;2022-08-19T02:35:07;35.85;;;23.58;;
34952;SDS011;21164;54.378;10.202;2022-08-19T02:37:33;38.63;;;22.80;;
34952;SDS011;21164;54.378;10.202;2022-08-19T02:40:18;33.22;;;22.65;;
34952;SDS011;21164;54.378;10.202;2022-08-19T02:45:10;33.97;;;22.47;;
34952;SDS011;21164;54.378;10.202;2022-08-19T02:47:37;33.88;;;21.75;;
34952;SDS011;21164;54.378;10.202;2022-08-19T02:50:03;36.58;;;23.13;;
34952;SDS011;21164;54.378;10.202;2022-08-19T02:52:29;38.30;;;22.27;;
34952;SDS011;21164;54.378;10.202;2022-08-19T02:54:56;36.97;;;23.35;;
34952;SDS011;21164;54.378;10.202;2022-08-19T02:57:22;31.42;;;22.45;;
34952;SDS011;21164;54.378;10.202;2022-08-19T02:59:48;38.42;;;23.40;;
34952;SDS011;21164;54.378;10.202;2022-08-19T03:04:40;31.60;;;22.02;;
34952;SDS011;21164;54.378;10.202;2022-08-19T03:07:07;34.83;;;22.17;;
34952;SDS011;21164;54.378;10.202;2022-08-19T03:09:33;35.65;;;22.05;;
34952;SDS011;21164;54.378;10.202;2022-08-19T03:12:02;36.78;;;22.50;;
34952;SDS011;21164;54.378;10.202;2022-08-19T03:14:30;36.70;;;21.13;;
34952;SDS011;21164;54.378;10.202;2022-08-19T03:16:56;36.20;;;23.30;;
34952;SDS011;21164;54.378;10.202;2022-08-19T03:19:22;34.30;;;22.42;;
34952;SDS011;21164;54.378;10.202;2022-08-19T03:21:48;36.03;;;22.00;;
34952;SDS011;21164;54.378;10.202;2022-08-19T03:24:15;33.70;;;21.42;;
34952;SDS011;21164;54.378;10.202;2022-08-19T03:26:44;34.22;;;22.00;;
34952;SDS011;21164;54.378;10.202;2022-08-19T03:29:13;33.92;;;22.85;;
34952;SDS011;21164;54.378;10.202;2022-08-19T03:31:40;36.25;;;22.20;;
34952;SDS011;21164;54.378;10.202;2022-08-19T03:34:08;35.65;;;21.70;;
34952;SDS011;21164;54.378;10.202;2022-08-19T03:36:34;35.28;;;21.13;;
34952;SDS011;21164;54.378;10.202;2022-08-19T03:39:00;37.08;;;22.75;;
34952;SDS011;21164;54.378;10.202;2022-08-19T03:41:27;43.40;;;22.05;;
34952;SDS011;21164;54.378;10.202;2022-08-19T03:43:58;33.13;;;21.48;;
34952;SDS011;21164;54.378;10.202;2022-08-19T03:46:28;31.65;;;20.58;;
34952;SDS011;21164;54.378;10.202;2022-08-19T03:48:56;37.00;;;20.70;;
34952;SDS011;21164;54.378;10.202;2022-08-19T03:51:24;32.80;;;21.38;;
34952;SDS011;21164;54.378;10.202;2022-08-19T03:53:50;35.83;;;21.33;;
34952;SDS011;21164;54.378;10.202;2022-08-19T03:56:17;32.50;;;19.45;;
34952;SDS011;21164;54.378;10.202;2022-08-19T03:58:42;32.63;;;20.17;;
34952;SDS011;21164;54.378;10.202;2022-08-19T04:03:35;28.90;;;19.27;;
34952;SDS011;21164;54.378;10.202;2022-08-19T04:06:11;34.03;;;17.90;;
34952;SDS011;21164;54.378;10.202;2022-08-19T04:08:48;32.15;;;20.23;;
34952;SDS011;21164;54.378;10.202;2022-08-19T04:11:19;38.60;;;19.67;;
34952;SDS011;21164;54.378;10.202;2022-08-19T04:13:48;31.90;;;19.02;;
34952;SDS011;21164;54.378;10.202;2022-08-19T04:16:16;34.85;;;19.95;;
34952;SDS011;21164;54.378;10.202;2022-08-19T04:18:42;27.80;;;18.25;;
34952;SDS011;21164;54.378;10.202;2022-08-19T04:23:39;28.23;;;19.58;;
34952;SDS011;21164;54.378;10.202;2022-08-19T04:28:30;30.60;;;19.23;;
34952;SDS011;21164;54.378;10.202;2022-08-19T04:30:56;27.35;;;18.92;;
34952;SDS011;21164;54.378;10.202;2022-08-19T04:33:25;32.80;;;20.02;;
34952;SDS011;21164;54.378;10.202;2022-08-19T04:35:53;37.08;;;19.92;;
34952;SDS011;21164;54.378;10.202;2022-08-19T04:40:46;31.30;;;19.25;;
34952;SDS011;21164;54.378;10.202;2022-08-19T04:43:32;39.28;;;19.02;;
34952;SDS011;21164;54.378;10.202;2022-08-19T04:46:03;36.05;;;19.42;;
34952;SDS011;21164;54.378;10.202;2022-08-19T04:48:36;36.78;;;21.50;;
34952;SDS011;21164;54.378;10.202;2022-08-19T04:51:06;31.15;;;19.60;;
34952;SDS011;21164;54.378;10.202;2022-08-19T04:53:34;29.67;;;19.20;;
34952;SDS011;21164;54.378;10.202;2022-08-19T04:56:06;34.05;;;20.13;;
34952;SDS011;21164;54.378;10.202;2022-08-19T04:58:35;32.42;;;20.42;;
34952;SDS011;21164;54.378;10.202;2022-08-19T05:01:02;40.50;;;22.17;;
34952;SDS011;21164;54.378;10.202;2022-08-19T05:03:29;30.33;;;20.15;;
34952;SDS011;21164;54.378;10.202;2022-08-19T05:05:58;36.25;;;19.60;;
34952;SDS011;21164;54.378;10.202;2022-08-19T05:08:35;28.92;;;19.42;;
34952;SDS011;21164;54.378;10.202;2022-08-19T05:11:07;33.42;;;19.60;;
34952;SDS011;21164;54.378;10.202;2022-08-19T05:13:34;27.83;;;18.45;;
34952;SDS011;21164;54.378;10.202;2022-08-19T05:18:25;34.70;;;20.27;;
34952;SDS011;21164;54.378;10.202;2022-08-19T05:21:10;32.00;;;19.35;;
34952;SDS011;21164;54.378;10.202;2022-08-19T05:23:56;34.60;;;18.90;;
34952;SDS011;21164;54.378;10.202;2022-08-19T05:28:48;29.08;;;19.23;;
34952;SDS011;21164;54.378;10.202;2022-08-19T05:33:39;29.52;;;18.65;;
34952;SDS011;21164;54.378;10.202;2022-08-19T05:36:05;32.08;;;19.38;;
34952;SDS011;21164;54.378;10.202;2022-08-19T05:38:32;32.58;;;19.52;;
34952;SDS011;21164;54.378;10.202;2022-08-19T05:40:58;31.20;;;19.90;;
34952;SDS011;21164;54.378;10.202;2022-08-19T05:45:50;38.40;;;21.70;;
34952;SDS011;21164;54.378;10.202;2022-08-19T05:50:45;31.35;;;19.90;;
34952;SDS011;21164;54.378;10.202;2022-08-19T05:53:11;37.22;;;20.60;;
34952;SDS011;21164;54.378;10.202;2022-08-19T05:58:06;32.50;;;20.10;;
34952;SDS011;21164;54.378;10.202;2022-08-19T06:00:35;35.90;;;21.23;;
34952;SDS011;21164;54.378;10.202;2022-08-19T06:03:02;33.28;;;20.58;;
34952;SDS011;21164;54.378;10.202;2022-08-19T06:07:56;37.75;;;21.92;;
34952;SDS011;21164;54.378;10.202;2022-08-19T06:10:23;33.38;;;20.77;;
34952;SDS011;21164;54.378;10.202;2022-08-19T06:12:51;36.53;;;21.60;;
34952;SDS011;21164;54.378;10.202;2022-08-19T06:17:42;33.72;;;21.92;;
34952;SDS011;21164;54.378;10.202;2022-08-19T06:20:10;37.88;;;22.08;;
34952;SDS011;21164;54.378;10.202;2022-08-19T06:22:40;35.45;;;21.58;;
34952;SDS011;21164;54.378;10.202;2022-08-19T06:25:09;38.10;;;22.77;;
34952;SDS011;21164;54.378;10.202;2022-08-19T06:27:36;34.50;;;20.95;;
34952;SDS011;21164;54.378;10.202;2022-08-19T06:32:28;34.10;;;21.10;;
34952;SDS011;21164;54.378;10.202;2022-08-19T06:34:54;35.15;;;20.88;;
34952;SDS011;21164;54.378;10.202;2022-08-19T06:37:19;37.53;;;21.75;;
34952;SDS011;21164;54.378;10.202;2022-08-19T06:39:46;33.47;;;21.70;;
34952;SDS011;21164;54.378;10.202;2022-08-19T06:42:13;32.78;;;21.50;;
34952;SDS011;21164;54.378;10.202;2022-08-19T06:44:42;37.92;;;21.67;;
34952;SDS011;21164;54.378;10.202;2022-08-19T06:47:10;30.98;;;22.00;;
34952;SDS011;21164;54.378;10.202;2022-08-19T06:49:38;37.05;;;23.55;;
34952;SDS011;21164;54.378;10.202;2022-08-19T06:54:30;41.75;;;24.05;;
34952;SDS011;21164;54.378;10.202;2022-08-19T06:59:23;37.85;;;25.70;;
34952;SDS011;21164;54.378;10.202;2022-08-19T07:01:53;44.10;;;26.73;;
34952;SDS011;21164;54.378;10.202;2022-08-19T07:04:22;37.20;;;26.92;;
34952;SDS011;21164;54.378;10.202;2022-08-19T07:06:55;47.28;;;30.75;;
34952;SDS011;21164;54.378;10.202;2022-08-19T07:09:26;43.10;;;28.63;;
34952;SDS011;21164;54.378;10.202;2022-08-19T07:14:20;42.95;;;31.00;;
34952;SDS011;21164;54.378;10.202;2022-08-19T07:16:48;41.95;;;29.42;;
34952;SDS011;21164;54.378;10.202;2022-08-19T07:19:16;48.47;;;31.40;;
34952;SDS011;21164;54.378;10.202;2022-08-19T07:21:43;41.38;;;30.52;;
34952;SDS011;21164;54.378;10.202;2022-08-19T07:26:39;45.35;;;30.38;;
34952;SDS011;21164;54.378;10.202;2022-08-19T07:29:06;46.17;;;31.15;;
34952;SDS011;21164;54.378;10.202;2022-08-19T07:34:01;41.38;;;30.92;;
34952;SDS011;21164;54.378;10.202;2022-08-19T07:36:28;43.25;;;30.02;;
34952;SDS011;21164;54.378;10.202;2022-08-19T07:38:57;44.42;;;31.75;;
34952;SDS011;21164;54.378;10.202;2022-08-19T07:41:28;47.88;;;33.33;;
34952;SDS011;21164;54.378;10.202;2022-08-19T07:43:55;43.90;;;30.95;;
34952;SDS011;21164;54.378;10.202;2022-08-19T07:48:48;50.53;;;33.28;;
34952;SDS011;21164;54.378;10.202;2022-08-19T07:51:18;47.92;;;32.13;;
34952;SDS011;21164;54.378;10.202;2022-08-19T07:53:45;52.58;;;32.55;;
34952;SDS011;21164;54.378;10.202;2022-08-19T07:56:12;52.40;;;34.45;;
34952;SDS011;21164;54.378;10.202;2022-08-19T07:58:39;49.92;;;33.30;;
34952;SDS011;21164;54.378;10.202;2022-08-19T08:01:09;48.63;;;33.30;;
34952;SDS011;21164;54.378;10.202;2022-08-19T08:03:37;48.25;;;33.00;;
34952;SDS011;21164;54.378;10.202;2022-08-19T08:06:22;52.63;;;34.40;;
34952;SDS011;21164;54.378;10.202;2022-08-19T08:09:06;49.47;;;34.78;;
34952;SDS011;21164;54.378;10.202;2022-08-19T08:11:39;60.22;;;37.10;;
34952;SDS011;21164;54.378;10.202;2022-08-19T08:14:14;60.55;;;35.83;;
34952;SDS011;21164;54.378;10.202;2022-08-19T08:16:43;58.22;;;35.90;;
34952;SDS011;21164;54.378;10.202;2022-08-19T08:19:10;61.75;;;37.60;;
34952;SDS011;21164;54.378;10.202;2022-08-19T08:21:36;59.20;;;38.45;;
34952;SDS011;21164;54.378;10.202;2022-08-19T08:26:28;56.72;;;34.13;;
34952;SDS011;21164;54.378;10.202;2022-08-19T08:31:19;58.10;;;35.42;;
34952;SDS011;21164;54.378;10.202;2022-08-19T08:33:45;56.28;;;34.85;;
34952;SDS011;21164;54.378;10.202;2022-08-19T08:36:12;55.80;;;34.10;;
34952;SDS011;21164;54.378;10.202;2022-08-19T08:38:39;50.92;;;33.17;;
34952;SDS011;21164;54.378;10.202;2022-08-19T08:43:53;49.40;;;32.83;;
34952;SDS011;21164;54.378;10.202;2022-08-19T08:51:26;42.97;;;30.20;;
34952;SDS011;21164;54.378;10.202;2022-08-19T08:53:57;47.63;;;30.65;;
34952;SDS011;21164;54.378;10.202;2022-08-19T08:56:25;45.28;;;29.33;;
34952;SDS011;21164;54.378;10.202;2022-08-19T08:59:03;43.28;;;28.65;;
34952;SDS011;21164;54.378;10.202;2022-08-19T09:01:35;47.47;;;29.45;;
34952;SDS011;21164;54.378;10.202;2022-08-19T09:04:05;41.10;;;29.10;;
34952;SDS011;21164;54.378;10.202;2022-08-19T09:06:46;39.47;;;29.02;;
34952;SDS011;21164;54.378;10.202;2022-08-19T09:17:32;37.72;;;25.92;;
34952;SDS011;21164;54.378;10.202;2022-08-19T09:22:41;38.03;;;26.25;;
34952;SDS011;21164;54.378;10.202;2022-08-19T09:25:10;35.53;;;25.52;;
34952;SDS011;21164;54.378;10.202;2022-08-19T09:27:40;35.78;;;24.92;;
34952;SDS011;21164;54.378;10.202;2022-08-19T09:30:08;34.42;;;24.58;;
34952;SDS011;21164;54.378;10.202;2022-08-19T09:32:39;35.05;;;25.50;;
34952;SDS011;21164;54.378;10.202;2022-08-19T09:35:06;35.75;;;24.48;;
34952;SDS011;21164;54.378;10.202;2022-08-19T09:39:58;31.80;;;23.58;;
34952;SDS011;21164;54.378;10.202;2022-08-19T09:44:49;33.90;;;22.20;;
34952;SDS011;21164;54.378;10.202;2022-08-19T09:47:15;37.90;;;24.52;;
34952;SDS011;21164;54.378;10.202;2022-08-19T09:49:40;36.08;;;23.13;;
34952;SDS011;21164;54.378;10.202;2022-08-19T09:52:09;33.63;;;23.48;;
34952;SDS011;21164;54.378;10.202;2022-08-19T09:54:36;31.80;;;22.65;;
34952;SDS011;21164;54.378;10.202;2022-08-19T09:57:03;31.30;;;22.85;;
34952;SDS011;21164;54.378;10.202;2022-08-19T10:01:55;32.53;;;22.92;;
34952;SDS011;21164;54.378;10.202;2022-08-19T10:04:21;32.90;;;23.08;;
34952;SDS011;21164;54.378;10.202;2022-08-19T10:09:14;34.65;;;22.20;;
34952;SDS011;21164;54.378;10.202;2022-08-19T10:11:43;29.60;;;21.90;;
34952;SDS011;21164;54.378;10.202;2022-08-19T10:14:14;33.55;;;22.92;;
34952;SDS011;21164;54.378;10.202;2022-08-19T10:16:41;28.13;;;21.52;;
34952;SDS011;21164;54.378;10.202;2022-08-19T10:19:08;30.58;;;22.13;;
34952;SDS011;21164;54.378;10.202;2022-08-19T10:21:34;31.38;;;21.92;;
34952;SDS011;21164;54.378;10.202;2022-08-19T10:24:01;31.88;;;22.00;;
34952;SDS011;21164;54.378;10.202;2022-08-19T10:26:32;28.73;;;21.30;;
34952;SDS011;21164;54.378;10.202;2022-08-19T10:29:01;32.63;;;22.30;;
34952;SDS011;21164;54.378;10.202;2022-08-19T10:31:30;35.13;;;22.42;;
34952;SDS011;21164;54.378;10.202;2022-08-19T10:33:57;30.50;;;21.85;;
34952;SDS011;21164;54.378;10.202;2022-08-19T10:38:54;35.10;;;22.83;;
34952;SDS011;21164;54.378;10.202;2022-08-19T10:41:31;34.15;;;22.65;;
34952;SDS011;21164;54.378;10.202;2022-08-19T10:43:59;31.48;;;21.38;;
34952;SDS011;21164;54.378;10.202;2022-08-19T10:46:28;33.10;;;22.88;;
34952;SDS011;21164;54.378;10.202;2022-08-19T10:48:57;29.92;;;21.40;;
34952;SDS011;21164;54.378;10.202;2022-08-19T10:51:24;38.47;;;24.60;;
34952;SDS011;21164;54.378;10.202;2022-08-19T10:54:08;35.15;;;23.27;;
34952;SDS011;21164;54.378;10.202;2022-08-19T10:56:34;30.27;;;23.02;;
34952;SDS011;21164;54.378;10.202;2022-08-19T10:59:16;33.53;;;23.08;;
34952;SDS011;21164;54.378;10.202;2022-08-19T11:01:51;35.70;;;23.65;;
34952;SDS011;21164;54.378;10.202;2022-08-19T11:06:43;32.92;;;21.83;;
34952;SDS011;21164;54.378;10.202;2022-08-19T11:09:12;35.20;;;23.98;;
34952;SDS011;21164;54.378;10.202;2022-08-19T11:11:46;33.60;;;24.65;;
34952;SDS011;21164;54.378;10.202;2022-08-19T11:14:15;34.70;;;22.95;;
34952;SDS011;21164;54.378;10.202;2022-08-19T11:16:43;34.75;;;23.90;;
34952;SDS011;21164;54.378;10.202;2022-08-19T11:21:36;39.40;;;24.83;;
34952;SDS011;21164;54.378;10.202;2022-08-19T11:24:07;35.47;;;24.98;;
34952;SDS011;21164;54.378;10.202;2022-08-19T11:26:36;39.30;;;26.17;;
34952;SDS011;21164;54.378;10.202;2022-08-19T11:29:03;38.33;;;25.42;;
34952;SDS011;21164;54.378;10.202;2022-08-19T11:31:31;38.90;;;25.60;;
34952;SDS011;21164;54.378;10.202;2022-08-19T11:33:59;33.45;;;25.17;;
34952;SDS011;21164;54.378;10.202;2022-08-19T11:36:28;35.50;;;24.67;;
34952;SDS011;21164;54.378;10.202;2022-08-19T11:38:55;37.92;;;24.92;;
34952;SDS011;21164;54.378;10.202;2022-08-19T11:43:50;34.88;;;25.15;;
34952;SDS011;21164;54.378;10.202;2022-08-19T11:46:20;36.40;;;24.52;;
34952;SDS011;21164;54.378;10.202;2022-08-19T11:48:47;31.13;;;22.63;;
34952;SDS011;21164;54.378;10.202;2022-08-19T11:51:15;34.25;;;23.88;;
34952;SDS011;21164;54.378;10.202;2022-08-19T11:53:43;35.67;;;23.15;;
34952;SDS011;21164;54.378;10.202;2022-08-19T11:56:10;36.28;;;23.80;;
34952;SDS011;21164;54.378;10.202;2022-08-19T12:01:04;32.35;;;24.05;;
34952;SDS011;21164;54.378;10.202;2022-08-19T12:03:32;38.55;;;26.80;;
34952;SDS011;21164;54.378;10.202;2022-08-19T12:05:58;35.55;;;25.55;;
34952;SDS011;21164;54.378;10.202;2022-08-19T12:08:27;36.00;;;25.67;;
34952;SDS011;21164;54.378;10.202;2022-08-19T12:13:19;35.33;;;25.98;;
34952;SDS011;21164;54.378;10.202;2022-08-19T12:15:45;34.33;;;25.05;;
34952;SDS011;21164;54.378;10.202;2022-08-19T12:18:12;39.50;;;27.38;;
34952;SDS011;21164;54.378;10.202;2022-08-19T12:20:40;34.83;;;26.10;;
34952;SDS011;21164;54.378;10.202;2022-08-19T12:23:07;35.15;;;25.42;;
34952;SDS011;21164;54.378;10.202;2022-08-19T12:25:37;35.65;;;22.88;;
34952;SDS011;21164;54.378;10.202;2022-08-19T12:28:13;42.53;;;26.45;;
34952;SDS011;21164;54.378;10.202;2022-08-19T12:30:38;40.03;;;25.85;;
34952;SDS011;21164;54.378;10.202;2022-08-19T12:33:04;44.88;;;29.05;;
34952;SDS011;21164;54.378;10.202;2022-08-19T12:37:55;41.30;;;27.02;;
34952;SDS011;21164;54.378;10.202;2022-08-19T12:40:21;45.70;;;27.42;;
34952;SDS011;21164;54.378;10.202;2022-08-19T12:42:46;41.05;;;27.67;;
34952;SDS011;21164;54.378;10.202;2022-08-19T12:45:14;41.20;;;28.13;;
34952;SDS011;21164;54.378;10.202;2022-08-19T12:50:06;40.55;;;28.55;;
34952;SDS011;21164;54.378;10.202;2022-08-19T12:52:33;41.38;;;26.75;;
34952;SDS011;21164;54.378;10.202;2022-08-19T12:55:06;40.35;;;27.25;;
34952;SDS011;21164;54.378;10.202;2022-08-19T12:57:32;38.45;;;26.58;;
34952;SDS011;21164;54.378;10.202;2022-08-19T13:00:00;41.53;;;27.00;;
34952;SDS011;21164;54.378;10.202;2022-08-19T13:02:30;35.95;;;26.38;;
34952;SDS011;21164;54.378;10.202;2022-08-19T13:04:57;47.53;;;28.00;;
34952;SDS011;21164;54.378;10.202;2022-08-19T13:07:23;36.45;;;24.80;;
34952;SDS011;21164;54.378;10.202;2022-08-19T13:12:16;40.08;;;26.40;;
34952;SDS011;21164;54.378;10.202;2022-08-19T13:14:42;35.67;;;24.63;;
34952;SDS011;21164;54.378;10.202;2022-08-19T13:17:07;39.97;;;26.90;;
34952;SDS011;21164;54.378;10.202;2022-08-19T13:22:01;34.92;;;24.05;;
34952;SDS011;21164;54.378;10.202;2022-08-19T13:26:52;33.38;;;23.50;;
34952;SDS011;21164;54.378;10.202;2022-08-19T13:29:17;31.77;;;24.67;;
34952;SDS011;21164;54.378;10.202;2022-08-19T13:32:02;32.83;;;24.60;;
34952;SDS011;21164;54.378;10.202;2022-08-19T13:34:46;29.35;;;23.25;;
34952;SDS011;21164;54.378;10.202;2022-08-19T13:39:37;31.65;;;22.75;;
34952;SDS011;21164;54.378;10.202;2022-08-19T13:42:03;29.08;;;23.23;;
34952;SDS011;21164;54.378;10.202;2022-08-19T13:44:30;27.77;;;21.42;;
34952;SDS011;21164;54.378;10.202;2022-08-19T13:47:05;32.97;;;23.73;;
34952;SDS011;21164;54.378;10.202;2022-08-19T13:49:32;26.00;;;21.50;;
34952;SDS011;21164;54.378;10.202;2022-08-19T13:52:00;31.90;;;23.23;;
34952;SDS011;21164;54.378;10.202;2022-08-19T13:56:52;26.55;;;21.67;;
34952;SDS011;21164;54.378;10.202;2022-08-19T14:01:43;31.77;;;21.27;;
34952;SDS011;21164;54.378;10.202;2022-08-19T14:06:34;29.20;;;22.17;;
34952;SDS011;21164;54.378;10.202;2022-08-19T14:11:27;27.25;;;23.58;;
34952;SDS011;21164;54.378;10.202;2022-08-19T14:16:18;28.55;;;21.15;;
34952;SDS011;21164;54.378;10.202;2022-08-19T14:18:44;27.85;;;22.48;;
34952;SDS011;21164;54.378;10.202;2022-08-19T14:23:39;23.48;;;20.27;;
34952;SDS011;21164;54.378;10.202;2022-08-19T14:28:41;26.70;;;21.45;;
34952;SDS011;21164;54.378;10.202;2022-08-19T14:33:37;23.42;;;20.15;;
34952;SDS011;21164;54.378;10.202;2022-08-19T14:38:29;29.85;;;22.73;;
34952;SDS011;21164;54.378;10.202;2022-08-19T14:41:04;24.50;;;21.42;;
34952;SDS011;21164;54.378;10.202;2022-08-19T14:43:31;25.58;;;20.02;;
34952;SDS011;21164;54.378;10.202;2022-08-19T14:48:22;24.50;;;18.88;;
34952;SDS011;21164;54.378;10.202;2022-08-19T14:50:48;23.98;;;20.10;;
34952;SDS011;21164;54.378;10.202;2022-08-19T14:53:13;22.08;;;19.20;;
34952;SDS011;21164;54.378;10.202;2022-08-19T14:55:42;27.20;;;21.02;;
34952;SDS011;21164;54.378;10.202;2022-08-19T14:58:08;22.77;;;20.23;;
34952;SDS011;21164;54.378;10.202;2022-08-19T15:02:59;26.42;;;20.92;;
34952;SDS011;21164;54.378;10.202;2022-08-19T15:07:51;27.05;;;20.15;;
34952;SDS011;21164;54.378;10.202;2022-08-19T15:10:19;24.20;;;19.98;;
34952;SDS011;21164;54.378;10.202;2022-08-19T15:12:46;26.45;;;19.88;;
34952;SDS011;21164;54.378;10.202;2022-08-19T15:17:39;25.15;;;20.63;;
34952;SDS011;21164;54.378;10.202;2022-08-19T15:20:06;25.80;;;20.05;;
34952;SDS011;21164;54.378;10.202;2022-08-19T15:22:33;22.58;;;19.98;;
34952;SDS011;21164;54.378;10.202;2022-08-19T15:25:00;23.23;;;17.75;;
34952;SDS011;21164;54.378;10.202;2022-08-19T15:29:52;28.35;;;22.77;;
34952;SDS011;21164;54.378;10.202;2022-08-19T15:34:43;27.25;;;22.15;;
34952;SDS011;21164;54.378;10.202;2022-08-19T15:39:34;25.35;;;20.45;;
34952;SDS011;21164;54.378;10.202;2022-08-19T15:44:26;24.98;;;20.85;;
34952;SDS011;21164;54.378;10.202;2022-08-19T15:49:18;25.05;;;20.20;;
34952;SDS011;21164;54.378;10.202;2022-08-19T15:51:44;21.08;;;17.95;;
34952;SDS011;21164;54.378;10.202;2022-08-19T15:54:14;21.80;;;18.73;;
34952;SDS011;21164;54.378;10.202;2022-08-19T15:56:41;22.63;;;19.70;;
34952;SDS011;21164;54.378;10.202;2022-08-19T15:59:30;21.75;;;18.65;;
34952;SDS011;21164;54.378;10.202;2022-08-19T16:02:16;25.13;;;20.52;;
34952;SDS011;21164;54.378;10.202;2022-08-19T16:05:02;24.00;;;20.60;;
34952;SDS011;21164;54.378;10.202;2022-08-19T16:07:49;22.73;;;20.17;;
34952;SDS011;21164;54.378;10.202;2022-08-19T16:12:40;27.88;;;22.05;;
34952;SDS011;21164;54.378;10.202;2022-08-19T16:17:33;26.30;;;21.27;;
34952;SDS011;21164;54.378;10.202;2022-08-19T16:19:59;23.55;;;20.13;;
34952;SDS011;21164;54.378;10.202;2022-08-19T16:22:30;23.38;;;20.40;;
34952;SDS011;21164;54.378;10.202;2022-08-19T16:24:56;25.95;;;21.73;;
34952;SDS011;21164;54.378;10.202;2022-08-19T16:27:22;24.73;;;21.23;;
34952;SDS011;21164;54.378;10.202;2022-08-19T16:29:49;24.70;;;20.60;;
34952;SDS011;21164;54.378;10.202;2022-08-19T16:34:40;27.15;;;22.15;;
34952;SDS011;21164;54.378;10.202;2022-08-19T16:37:07;25.98;;;19.85;;
34952;SDS011;21164;54.378;10.202;2022-08-19T16:39:34;26.90;;;22.00;;
34952;SDS011;21164;54.378;10.202;2022-08-19T16:42:00;27.13;;;23.45;;
34952;SDS011;21164;54.378;10.202;2022-08-19T16:46:51;31.10;;;25.08;;
34952;SDS011;21164;54.378;10.202;2022-08-19T16:49:18;26.67;;;22.65;;
34952;SDS011;21164;54.378;10.202;2022-08-19T16:54:09;28.20;;;21.77;;
34952;SDS011;21164;54.378;10.202;2022-08-19T16:59:00;26.50;;;20.70;;
34952;SDS011;21164;54.378;10.202;2022-08-19T17:03:52;26.88;;;22.27;;
34952;SDS011;21164;54.378;10.202;2022-08-19T17:06:20;25.70;;;21.55;;
34952;SDS011;21164;54.378;10.202;2022-08-19T17:08:50;24.40;;;20.05;;
34952;SDS011;21164;54.378;10.202;2022-08-19T17:11:18;23.52;;;18.40;;
34952;SDS011;21164;54.378;10.202;2022-08-19T17:13:46;23.17;;;19.02;;
34952;SDS011;21164;54.378;10.202;2022-08-19T17:16:15;23.48;;;20.50;;
34952;SDS011;21164;54.378;10.202;2022-08-19T17:18:42;21.08;;;18.77;;
34952;SDS011;21164;54.378;10.202;2022-08-19T17:23:33;19.45;;;17.33;;